createdAt,value
2023-03-23T15:59:07.239Z,16.34
2023-03-23T16:01:33.983Z,16.45
2023-03-23T16:04:09.257Z,15.92
2023-03-23T16:06:37.001Z,15.37
2023-03-23T16:09:04.794Z,14.96
2023-03-23T16:11:32.415Z,14.87
2023-03-23T16:13:59.629Z,14.59
2023-03-23T16:16:37.180Z,14.73
2023-03-23T16:19:07.377Z,14.31
2023-03-23T16:21:34.210Z,14.42
2023-03-23T16:24:01.404Z,14.28
2023-03-23T16:26:27.969Z,14.22
2023-03-23T16:29:02.725Z,14.14
2023-03-23T16:31:36.782Z,14.19
2023-03-23T16:34:03.701Z,14.14
2023-03-23T16:36:30.644Z,14.16
2023-03-23T16:38:57.281Z,13.98
2023-03-23T16:41:23.821Z,13.96
2023-03-23T16:43:50.362Z,14.01
2023-03-23T16:46:16.942Z,13.94
2023-03-23T16:48:43.761Z,13.92
2023-03-23T16:51:10.451Z,13.77
2023-03-23T16:53:37.674Z,13.78
2023-03-23T16:56:04.993Z,13.89
2023-03-23T16:58:31.564Z,13.69
2023-03-23T17:00:58.088Z,13.68
2023-03-23T17:03:24.771Z,13.60
2023-03-23T17:05:52.313Z,13.67
2023-03-23T17:08:20.502Z,13.69
2023-03-23T17:10:47.096Z,13.64
2023-03-23T17:13:13.922Z,13.57
2023-03-23T17:15:43.035Z,13.56
2023-03-23T17:18:11.281Z,13.53
2023-03-23T17:20:38.240Z,13.66
2023-03-23T17:23:05.482Z,13.68
2023-03-23T17:25:32.252Z,13.48
2023-03-23T17:28:05.609Z,13.55
2023-03-23T17:30:33.117Z,13.63
2023-03-23T17:32:59.737Z,13.55
2023-03-23T17:35:26.328Z,13.42
2023-03-23T17:37:52.839Z,13.37
2023-03-23T17:40:19.428Z,13.28
2023-03-23T17:42:46.382Z,13.23
2023-03-23T17:45:12.886Z,13.24
2023-03-23T17:47:39.518Z,13.18
2023-03-23T17:50:11.921Z,13.14
2023-03-23T17:52:39.778Z,13.07
2023-03-23T17:55:06.866Z,13.07
2023-03-23T17:57:35.896Z,12.96
2023-03-23T18:00:03.929Z,12.79
2023-03-23T18:02:30.592Z,12.66
2023-03-23T18:04:59.547Z,12.42
2023-03-23T18:07:26.380Z,12.20
2023-03-23T18:09:52.897Z,12.04
2023-03-23T18:12:19.504Z,11.88
2023-03-23T18:14:46.100Z,11.73
2023-03-23T18:17:12.658Z,11.63
2023-03-23T18:19:39.247Z,11.59
2023-03-23T18:22:05.778Z,11.55
2023-03-23T18:24:32.413Z,11.56
2023-03-23T18:27:00.191Z,11.55
2023-03-23T18:29:26.806Z,11.54
2023-03-23T18:31:53.366Z,11.55
2023-03-23T18:34:19.908Z,11.61
2023-03-23T18:36:46.505Z,11.64
2023-03-23T18:39:13.096Z,11.67
2023-03-23T18:41:39.639Z,11.68
2023-03-23T18:44:06.269Z,11.68
2023-03-23T18:46:33.138Z,11.65
2023-03-23T18:48:59.720Z,11.62
2023-03-23T18:51:26.309Z,11.56
2023-03-23T18:53:53.329Z,11.53
2023-03-23T18:56:20.748Z,11.46
2023-03-23T18:58:47.543Z,11.37
2023-03-23T19:01:16.827Z,11.34
2023-03-23T19:03:45.082Z,11.30
2023-03-23T19:06:21.529Z,11.28
2023-03-23T19:08:49.075Z,11.28
2023-03-23T19:11:16.169Z,11.28
2023-03-23T19:13:53.861Z,11.30
2023-03-23T19:16:25.369Z,11.29
2023-03-23T19:18:51.883Z,11.26
2023-03-23T19:21:21.265Z,11.24
2023-03-23T19:23:51.861Z,11.25
2023-03-23T19:26:23.892Z,11.28
2023-03-23T19:31:22.741Z,11.30
2023-03-23T19:33:49.331Z,11.35
2023-03-23T19:36:16.825Z,11.31
2023-03-23T19:38:43.857Z,11.30
2023-03-23T19:41:10.985Z,11.29
2023-03-23T19:43:37.748Z,11.28
2023-03-23T19:46:04.622Z,11.29
2023-03-23T19:48:31.280Z,11.28
2023-03-23T19:50:58.684Z,11.28
2023-03-23T19:53:26.725Z,11.25
2023-03-23T19:55:53.294Z,11.22
2023-03-23T19:58:20.501Z,11.21
2023-03-23T20:00:48.567Z,11.19
2023-03-23T20:03:15.979Z,11.17
2023-03-23T20:05:43.022Z,11.18
2023-03-23T20:08:10.219Z,11.17
2023-03-23T20:10:37.343Z,11.15
2023-03-23T20:13:04.945Z,11.11
2023-03-23T20:15:32.135Z,11.09
2023-03-23T20:17:59.301Z,11.07
2023-03-23T20:20:26.903Z,11.08
2023-03-23T20:22:55.883Z,11.05
2023-03-23T20:25:24.597Z,11.06
2023-03-23T20:27:51.197Z,11.04
2023-03-23T20:30:18.795Z,10.99
2023-03-23T20:32:46.452Z,10.96
2023-03-23T20:35:14.741Z,10.96
2023-03-23T20:37:41.610Z,11.02
2023-03-23T20:40:14.690Z,11.13
2023-03-23T20:42:44.071Z,11.09
2023-03-23T20:45:12.792Z,11.05
2023-03-23T20:47:39.894Z,10.99
2023-03-23T20:50:08.691Z,10.92
2023-03-23T20:52:35.598Z,10.88
2023-03-23T20:55:02.992Z,10.88
2023-03-23T20:57:29.538Z,10.84
2023-03-23T20:59:56.219Z,10.89
2023-03-23T21:02:25.100Z,10.95
2023-03-23T21:04:52.928Z,11.00
2023-03-23T21:07:23.096Z,11.02
2023-03-23T21:09:49.767Z,11.02
2023-03-23T21:12:16.384Z,11.03
2023-03-23T21:14:44.901Z,11.04
2023-03-23T21:17:11.755Z,11.03
2023-03-23T21:19:38.544Z,11.03
2023-03-23T21:22:05.260Z,11.06
2023-03-23T21:24:32.075Z,11.01
2023-03-23T21:27:00.803Z,10.98
2023-03-23T21:29:28.259Z,10.95
2023-03-23T21:32:07.597Z,10.92
2023-03-23T21:34:35.189Z,10.95
2023-03-23T21:37:01.725Z,10.92
2023-03-23T21:39:28.311Z,10.89
2023-03-23T21:41:55.165Z,10.90
2023-03-23T21:44:21.739Z,10.84
2023-03-23T21:46:48.510Z,10.78
2023-03-23T21:49:15.194Z,10.74
2023-03-23T21:51:42.021Z,10.69
2023-03-23T21:54:10.064Z,10.66
2023-03-23T21:56:36.874Z,10.65
2023-03-23T21:59:04.748Z,10.67
2023-03-23T22:01:31.428Z,10.65
2023-03-23T22:03:58.343Z,10.62
2023-03-23T22:06:28.359Z,10.58
2023-03-23T22:08:55.366Z,10.47
2023-03-23T22:11:24.731Z,10.42
2023-03-23T22:13:52.704Z,10.39
2023-03-23T22:16:20.673Z,10.39
2023-03-23T22:18:48.456Z,10.39
2023-03-23T22:21:16.257Z,10.43
2023-03-23T22:23:43.828Z,10.44
2023-03-23T22:26:10.999Z,10.50
2023-03-23T22:28:38.731Z,10.45
2023-03-23T22:31:12.898Z,10.42
2023-03-23T22:33:39.993Z,10.37
2023-03-23T22:36:07.337Z,10.36
2023-03-23T22:38:36.432Z,10.35
2023-03-23T22:41:06.769Z,10.39
2023-03-23T22:43:34.678Z,10.48
2023-03-23T22:46:01.534Z,10.50
2023-03-23T22:48:28.348Z,10.55
2023-03-23T22:50:55.199Z,10.58
2023-03-23T22:53:21.973Z,10.60
2023-03-23T22:55:50.283Z,10.60
2023-03-23T22:58:16.850Z,10.61
2023-03-23T23:00:45.439Z,10.58
2023-03-23T23:03:12.401Z,10.55
2023-03-23T23:05:49.072Z,10.54
2023-03-23T23:08:17.868Z,10.58
2023-03-23T23:10:47.098Z,10.58
2023-03-23T23:13:13.879Z,10.60
2023-03-23T23:15:42.660Z,10.56
2023-03-23T23:18:09.345Z,10.56
2023-03-23T23:20:36.554Z,10.56
2023-03-23T23:23:03.846Z,10.59
2023-03-23T23:25:31.026Z,10.61
2023-03-23T23:27:59.164Z,10.62
2023-03-23T23:30:26.157Z,10.64
2023-03-23T23:32:53.376Z,10.66
2023-03-23T23:35:21.395Z,10.61
2023-03-23T23:37:48.402Z,10.60
2023-03-23T23:40:15.793Z,10.63
2023-03-23T23:42:43.628Z,10.65
2023-03-23T23:45:10.442Z,10.68
2023-03-23T23:47:38.435Z,10.70
2023-03-23T23:50:09.940Z,10.71
2023-03-23T23:52:37.495Z,10.73
2023-03-23T23:55:05.571Z,10.74
2023-03-23T23:57:32.339Z,10.79
2023-03-23T23:59:58.877Z,10.78
